Time;durP1;ratioP1;P1;durP2;ratioP2;P2;SDS_P1;SDS_P2;PMS_P1;PMS_P2;Temp;Humidity;BMP_temperature;BMP_pressure;BME280_temperature;BME280_humidity;BME280_pressure;Samples;Min_cycle;Max_cycle;Signal;HPM_P1;HPM_P2
2023/12/30 00:02:04;;;;;;;0.20;0.20;;;;;;;11.48;88.89;75018.16;6182744;23;20452;-78
2023/12/30 00:04:29;;;;;;;0.20;0.20;;;;;;;11.47;89.17;75025.88;6182883;23;20084;-78
2023/12/30 00:06:54;;;;;;;0.20;0.20;;;;;;;11.65;87.57;75037.91;6156631;23;20036;-78
2023/12/30 00:09:20;;;;;;;0.20;0.20;;;;;;;11.48;86.75;75023.72;6183474;23;20005;-78
2023/12/30 00:11:45;;;;;;;0.20;0.20;;;;;;;11.44;86.72;75016.16;6183538;23;20080;-78
2023/12/30 00:14:12;;;;;;;0.20;0.20;;;;;;;11.45;87.03;75022.88;6182529;23;20067;-78
2023/12/30 00:16:39;;;;;;;0.20;0.20;;;;;;;11.43;87.83;75018.31;6183284;23;20107;-78
2023/12/30 00:19:05;;;;;;;0.20;0.20;;;;;;;11.52;87.74;75029.09;6183380;23;20021;-77
2023/12/30 00:21:31;;;;;;;0.20;0.20;;;;;;;11.46;88.01;75024.09;6183277;23;20001;-78
2023/12/30 00:24:02;;;;;;;0.20;0.20;;;;;;;11.79;88.08;75060.78;6183240;23;20016;-78
2023/12/30 00:26:27;;;;;;;0.20;0.20;;;;;;;11.63;86.34;75046.59;6161985;23;20001;-78
2023/12/30 00:28:53;;;;;;;0.20;0.20;;;;;;;11.63;86.99;75035.50;6187899;23;20011;-78
2023/12/30 00:31:27;;;;;;;0.20;0.20;;;;;;;11.43;88.86;75018.31;6187982;23;20005;-78
2023/12/30 00:33:58;;;;;;;0.20;0.20;;;;;;;11.38;91.58;75015.13;6188520;23;20005;-78
2023/12/30 00:36:26;;;;;;;0.22;0.22;;;;;;;11.29;91.82;75004.34;6190988;23;20385;-78
2023/12/30 00:38:55;;;;;;;0.20;0.20;;;;;;;11.27;93.63;75005.34;6165443;23;20005;-78
2023/12/30 00:41:26;;;;;;;0.30;0.30;;;;;;;11.46;93.59;75024.09;6165739;23;20005;-78
2023/12/30 00:43:52;;;;;;;0.20;0.20;;;;;;;11.14;93.83;74991.97;6192025;23;20009;-78
2023/12/30 00:46:19;;;;;;;0.30;0.30;;;;;;;11.38;94.12;75017.28;6191170;23;20005;-78
2023/12/30 00:48:50;;;;;;;0.30;0.30;;;;;;;11.07;93.89;74980.84;6190227;23;20395;-78
2023/12/30 00:51:26;;;;;;;0.20;0.20;;;;;;;11.38;94.77;75015.13;6191788;23;20004;-78
2023/12/30 00:53:52;;;;;;;0.30;0.30;;;;;;;11.15;93.92;74982.69;6191163;23;20005;-78
2023/12/30 00:56:18;;;;;;;0.20;0.20;;;;;;;11.33;94.37;75006.38;6191157;23;20005;-78
2023/12/30 00:58:44;;;;;;;0.20;0.20;;;;;;;11.22;94.65;74993.81;6191089;23;20001;-78
2023/12/30 01:01:09;;;;;;;0.30;0.30;;;;;;;11.18;95.38;74985.66;6192229;23;20009;-78
2023/12/30 01:03:35;;;;;;;0.30;0.30;;;;;;;11.04;95.60;74975.09;6165135;23;20012;-78
2023/12/30 01:06:01;;;;;;;0.20;0.20;;;;;;;11.24;95.91;74992.88;6190132;23;20444;-78
2023/12/30 01:08:26;;;;;;;0.20;0.20;;;;;;;11.39;95.47;75013.53;6189420;23;20156;-78
2023/12/30 01:10:53;;;;;;;0.20;0.20;;;;;;;11.20;95.09;74993.63;6190209;23;20045;-78
2023/12/30 01:13:18;;;;;;;0.20;0.20;;;;;;;11.32;95.24;75004.59;6188612;23;20040;-78
2023/12/30 01:15:45;;;;;;;0.22;0.22;;;;;;;11.40;95.13;75014.75;6189022;23;20040;-78
2023/12/30 01:18:10;;;;;;;0.30;0.30;;;;;;;11.33;95.18;75009.13;6188944;23;20001;-78
2023/12/30 01:20:36;;;;;;;0.20;0.20;;;;;;;11.25;95.69;74999.59;6189083;23;20001;-78
2023/12/30 01:23:02;;;;;;;0.20;0.20;;;;;;;11.27;95.40;74996.44;6160954;23;20012;-78
2023/12/30 01:25:28;;;;;;;0.20;0.20;;;;;;;11.23;95.87;74997.19;6188393;23;20004;-78
2023/12/30 01:27:54;;;;;;;0.20;0.20;;;;;;;11.19;96.02;74993.03;6160877;23;20005;-78
2023/12/30 01:30:20;;;;;;;0.20;0.20;;;;;;;11.47;96.33;75022.53;6188718;23;20053;-78
2023/12/30 01:32:45;;;;;;;0.20;0.20;;;;;;;11.44;96.33;75016.75;6189856;23;20442;-78
2023/12/30 01:35:11;;;;;;;0.20;0.20;;;;;;;10.92;96.37;74960.72;6189623;23;20012;-78
2023/12/30 01:37:36;;;;;;;0.20;0.20;;;;;;;11.02;96.18;74970.53;6190020;23;20453;-77
2023/12/30 01:40:02;;;;;;;0.20;0.20;;;;;;;11.05;97.61;74976.28;6189569;23;20081;-78
2023/12/30 01:42:29;;;;;;;0.30;0.30;;;;;;;11.13;97.07;74985.84;6188567;23;20005;-78
2023/12/30 01:44:54;;;;;;;0.20;0.20;;;;;;;10.95;96.66;74964.31;6189451;23;20028;-78
2023/12/30 01:47:21;;;;;;;0.20;0.20;;;;;;;11.40;96.50;75016.91;6162733;23;20013;-78
2023/12/30 01:49:47;;;;;;;0.20;0.20;;;;;;;11.52;96.14;75029.09;6188636;23;20008;-78
2023/12/30 01:52:13;;;;;;;0.20;0.20;;;;;;;11.23;95.85;74997.19;6188815;23;20005;-78
2023/12/30 01:54:40;;;;;;;0.30;0.30;;;;;;;11.37;95.70;75011.16;6190131;23;20012;-78
2023/12/30 01:57:06;;;;;;;0.20;0.20;;;;;;;11.62;94.22;75043.22;6189831;23;20496;-78
2023/12/30 01:59:34;;;;;;;0.20;0.20;;;;;;;11.46;92.99;75024.69;6188389;23;20005;-78
2023/12/30 02:02:01;;;;;;;0.20;0.20;;;;;;;11.46;92.73;75024.69;6190504;23;20001;-78
2023/12/30 02:04:29;;;;;;;0.20;0.20;;;;;;;11.36;92.78;75009.97;6189203;23;20016;-78
2023/12/30 02:06:54;;;;;;;0.20;0.20;;;;;;;11.45;92.17;75020.13;6190471;23;20051;-78
2023/12/30 02:09:20;;;;;;;0.20;0.20;;;;;;;11.37;92.44;75016.69;6191412;23;20029;-78
2023/12/30 02:11:48;;;;;;;0.20;0.20;;;;;;;11.58;91.32;75037.84;6190974;23;20045;-78
2023/12/30 02:14:30;;;;;;;0.20;0.20;;;;;;;11.42;92.25;75019.91;6189700;23;20085;-78
2023/12/30 02:16:57;;;;;;;0.30;0.30;;;;;;;11.49;91.52;75027.66;6164750;23;20072;-78
2023/12/30 02:19:23;;;;;;;0.22;0.22;;;;;;;11.50;91.30;75029.47;6188486;23;20020;-78
2023/12/30 02:21:50;;;;;;;0.20;0.20;;;;;;;11.55;91.48;75035.44;6162746;23;20013;-78
2023/12/30 02:24:16;;;;;;;0.20;0.20;;;;;;;11.55;91.45;75032.66;6190459;23;20004;-78
2023/12/30 02:26:41;;;;;;;0.20;0.20;;;;;;;11.40;91.53;75011.38;6165270;23;20096;-78
2023/12/30 02:29:07;;;;;;;0.20;0.20;;;;;;;11.49;91.82;75025.50;6191118;23;20162;-78
2023/12/30 02:31:36;;;;;;;0.20;0.20;;;;;;;11.72;92.06;75051.81;6188613;23;20006;-77
2023/12/30 02:34:01;;;;;;;0.20;0.20;;;;;;;11.62;92.14;75037.69;6187487;23;20075;-78
2023/12/30 02:36:30;;;;;;;0.20;0.20;;;;;;;11.33;92.93;75011.91;6186666;23;20059;-78
2023/12/30 02:38:57;;;;;;;0.28;0.28;;;;;;;11.59;92.84;75033.50;6187265;23;20311;-78
2023/12/30 02:41:22;;;;;;;0.20;0.20;;;;;;;11.20;93.46;74996.38;6188853;23;20005;-78
2023/12/30 02:44:00;;;;;;;0.20;0.20;;;;;;;11.55;93.43;75032.66;6189369;23;20027;-78
2023/12/30 02:46:26;;;;;;;0.30;0.30;;;;;;;11.27;93.56;75001.97;6190089;23;20008;-78
2023/12/30 02:48:52;;;;;;;0.20;0.20;;;;;;;11.16;94.42;74983.28;6187986;23;20009;-78
2023/12/30 02:51:18;;;;;;;0.20;0.20;;;;;;;11.02;94.12;74967.78;6190367;23;20334;-78
2023/12/30 02:53:44;;;;;;;0.30;0.30;;;;;;;11.12;93.83;74984.03;6190274;23;20001;-77
2023/12/30 02:56:38;;;;;;;0.20;0.20;;;;;;;11.36;93.84;75012.13;6190233;23;20015;-78
2023/12/30 02:59:04;;;;;;;0.20;0.20;;;;;;;11.04;94.41;74975.09;6176398;23;20365;-78
2023/12/30 03:01:31;;;;;;;0.30;0.30;;;;;;;11.08;94.33;74979.25;6191146;23;20001;-78
2023/12/30 03:03:58;;;;;;;0.20;0.20;;;;;;;11.30;95.30;75000.03;6191141;23;20005;-78
2023/12/30 03:06:30;;;;;;;0.20;0.20;;;;;;;11.06;95.13;74977.47;6191470;23;20025;-78
2023/12/30 03:08:55;;;;;;;0.20;0.20;;;;;;;11.01;95.04;74977.63;6185502;23;20067;-78
2023/12/30 03:11:22;;;;;;;0.30;0.30;;;;;;;11.22;95.06;74993.22;6183117;23;20009;-78
2023/12/30 03:13:49;;;;;;;0.30;0.30;;;;;;;10.98;95.44;74962.38;6182770;23;20020;-78
2023/12/30 03:16:18;;;;;;;0.30;0.30;;;;;;;10.89;95.98;74957.75;6182668;23;20007;-78
2023/12/30 03:18:44;;;;;;;0.20;0.20;;;;;;;10.94;95.63;74963.72;6183179;23;20364;-78
2023/12/30 03:21:12;;;;;;;0.30;0.30;;;;;;;10.95;96.68;74964.91;6183092;23;20429;-78
2023/12/30 03:23:38;;;;;;;0.20;0.20;;;;;;;10.99;96.91;74969.13;6157558;23;20016;-78
2023/12/30 03:26:05;;;;;;;0.20;0.20;;;;;;;11.04;97.14;74974.50;6186831;23;20033;-78
2023/12/30 03:28:31;;;;;;;0.30;0.30;;;;;;;11.11;94.37;74985.63;6187648;23;20012;-77
2023/12/30 03:30:56;;;;;;;0.20;0.20;;;;;;;10.91;95.42;74960.13;6186757;23;20333;-78
2023/12/30 03:33:23;;;;;;;0.30;0.30;;;;;;;10.66;95.74;74928.09;6186852;23;20493;-78
2023/12/30 03:35:49;;;;;;;0.30;0.30;;;;;;;11.06;95.35;74977.47;6186257;23;20005;-78
2023/12/30 03:38:16;;;;;;;0.20;0.20;;;;;;;10.98;95.88;74967.91;6185543;23;20008;-78
2023/12/30 03:40:44;;;;;;;0.30;0.30;;;;;;;10.84;95.78;74951.78;6183343;23;20005;-78
2023/12/30 03:43:10;;;;;;;0.20;0.20;;;;;;;10.63;95.70;74923.91;6185604;23;20016;-78
2023/12/30 03:45:35;;;;;;;0.20;0.20;;;;;;;11.01;96.07;74972.09;6185573;23;20337;-78
2023/12/30 03:48:00;;;;;;;0.20;0.20;;;;;;;11.14;96.10;74987.03;6186106;23;20422;-78
2023/12/30 03:50:26;;;;;;;0.20;0.20;;;;;;;10.68;95.90;74927.13;6184341;23;20076;-77
2023/12/30 03:52:53;;;;;;;0.20;0.20;;;;;;;11.02;96.29;74969.91;6185615;23;20032;-78
2023/12/30 03:55:23;;;;;;;0.20;0.20;;;;;;;11.30;96.35;75004.97;6134798;23;20024;-78
2023/12/30 03:57:48;;;;;;;0.20;0.20;;;;;;;11.30;96.31;74999.44;6184353;23;20337;-77
2023/12/30 04:00:15;;;;;;;0.30;0.30;;;;;;;11.27;96.84;75001.97;6186994;23;20009;-78
2023/12/30 04:02:42;;;;;;;0.20;0.20;;;;;;;11.04;96.46;74974.50;6188020;23;20001;-78
2023/12/30 04:05:07;;;;;;;0.20;0.20;;;;;;;11.32;96.35;75007.94;6190030;23;20009;-77
2023/12/30 04:07:36;;;;;;;0.20;0.20;;;;;;;11.08;97.15;74979.25;6191098;23;20513;-78
2023/12/30 04:10:04;;;;;;;0.20;0.20;;;;;;;11.37;96.96;75011.16;6161084;23;20012;-78
2023/12/30 04:12:33;;;;;;;0.30;0.30;;;;;;;10.95;97.10;74967.69;6191946;23;20001;-78
2023/12/30 04:14:58;;;;;;;0.22;0.22;;;;;;;10.88;97.33;74950.44;6189384;23;20071;-78
2023/12/30 04:17:25;;;;;;;0.20;0.20;;;;;;;10.96;98.08;74966.13;6189974;23;20005;-78
2023/12/30 04:19:50;;;;;;;0.20;0.20;;;;;;;11.11;97.62;74985.63;6163095;23;20036;-78
2023/12/30 04:22:17;;;;;;;0.20;0.20;;;;;;;10.80;98.25;74943.63;6189552;23;20001;-78
2023/12/30 04:24:43;;;;;;;0.30;0.30;;;;;;;11.13;97.35;74985.22;6191006;23;20001;-78
2023/12/30 04:27:10;;;;;;;0.20;0.20;;;;;;;11.02;97.86;74976.06;6189703;23;20095;-78
2023/12/30 04:29:35;;;;;;;0.20;0.20;;;;;;;11.17;97.60;74987.84;6189747;23;20034;-78
2023/12/30 04:32:04;;;;;;;0.20;0.20;;;;;;;10.92;97.15;74957.97;6163120;23;20441;-78
2023/12/30 04:34:31;;;;;;;0.20;0.20;;;;;;;11.07;98.05;74980.84;6189551;23;20059;-78
2023/12/30 04:36:56;;;;;;;0.20;0.20;;;;;;;11.18;97.65;74991.81;6189921;23;20005;-78
2023/12/30 04:39:22;;;;;;;0.20;0.20;;;;;;;10.93;96.88;74962.53;6189819;23;20099;-78
2023/12/30 04:41:48;;;;;;;0.20;0.20;;;;;;;11.32;97.01;75007.94;6188957;23;20020;-77
2023/12/30 04:44:13;;;;;;;0.20;0.20;;;;;;;11.01;96.95;74966.56;6191087;23;20012;-78
2023/12/30 04:46:39;;;;;;;0.20;0.20;;;;;;;10.88;97.26;74956.56;6189391;23;20001;-78
2023/12/30 04:49:04;;;;;;;0.20;0.20;;;;;;;11.20;97.77;74990.84;6189656;23;20442;-78
2023/12/30 04:51:30;;;;;;;0.20;0.20;;;;;;;11.14;98.27;74987.03;6163517;23;20035;-78
2023/12/30 04:53:56;;;;;;;0.20;0.20;;;;;;;10.95;98.31;74964.91;6162947;23;20005;-78
2023/12/30 04:56:21;;;;;;;0.20;0.20;;;;;;;11.07;97.92;74978.06;6189857;23;20436;-78
2023/12/30 04:58:47;;;;;;;0.25;0.25;;;;;;;11.29;98.33;75001.59;6187997;23;20445;-78
2023/12/30 05:01:12;;;;;;;0.20;0.20;;;;;;;11.34;97.95;75004.78;6188803;23;20028;-78
2023/12/30 05:03:42;;;;;;;0.22;0.22;;;;;;;11.13;98.04;74988.00;6189329;23;20001;-78
2023/12/30 05:06:07;;;;;;;0.20;0.20;;;;;;;10.97;98.42;74966.72;6189658;23;20005;-78
2023/12/30 05:08:33;;;;;;;0.20;0.20;;;;;;;11.33;97.91;75005.78;6189285;23;20132;-78
2023/12/30 05:11:06;;;;;;;0.20;0.20;;;;;;;10.94;98.61;74963.72;6189448;23;20001;-78
2023/12/30 05:13:32;;;;;;;0.20;0.20;;;;;;;11.17;98.38;74987.84;6187775;23;20005;-78
2023/12/30 05:15:57;;;;;;;0.20;0.20;;;;;;;11.34;99.08;75010.34;6189458;23;20345;-78
2023/12/30 05:18:26;;;;;;;0.30;0.30;;;;;;;11.06;98.51;74977.47;6189664;23;20005;-78
2023/12/30 05:20:52;;;;;;;0.20;0.20;;;;;;;11.05;97.89;74970.16;6188862;23;20005;-78
2023/12/30 05:23:19;;;;;;;0.20;0.20;;;;;;;11.34;97.54;75010.34;6189926;23;20448;-78
2023/12/30 05:25:45;;;;;;;0.20;0.20;;;;;;;10.97;98.46;74961.78;6190006;23;20430;-77
2023/12/30 05:28:11;;;;;;;0.20;0.20;;;;;;;10.99;96.47;74969.72;6189222;23;20068;-78
2023/12/30 05:30:36;;;;;;;0.20;0.20;;;;;;;11.19;95.17;74992.41;6189579;23;20076;-78
2023/12/30 05:33:03;;;;;;;0.30;0.30;;;;;;;11.00;94.59;74973.66;6189327;23;20009;-78
2023/12/30 05:35:28;;;;;;;0.20;0.20;;;;;;;11.15;94.91;74987.63;6162847;23;20012;-78
2023/12/30 05:37:54;;;;;;;0.30;0.30;;;;;;;10.99;94.36;74963.56;6190354;23;20005;-78
2023/12/30 05:40:22;;;;;;;0.20;0.20;;;;;;;11.14;93.86;74986.44;6190785;23;20330;-77
2023/12/30 05:42:47;;;;;;;0.20;0.20;;;;;;;11.40;93.11;75012.00;6190429;23;20353;-77
2023/12/30 05:45:13;;;;;;;0.25;0.25;;;;;;;11.43;95.54;75020.50;6164191;23;19994;-78
2023/12/30 05:47:38;;;;;;;0.30;0.30;;;;;;;11.05;92.75;74975.69;6190303;23;20015;-78
2023/12/30 05:50:06;;;;;;;0.20;0.20;;;;;;;10.91;90.84;74959.53;6189685;23;19997;-77
2023/12/30 05:52:37;;;;;;;0.20;0.20;;;;;;;11.37;90.27;75013.34;6199480;23;20004;-79
2023/12/30 05:55:04;;;;;;;0.30;0.30;;;;;;;11.17;90.31;74987.25;6174337;23;20056;-78
2023/12/30 05:57:31;;;;;;;0.20;0.20;;;;;;;11.17;90.84;74990.03;6191140;23;20001;-78
2023/12/30 05:59:57;;;;;;;0.20;0.20;;;;;;;11.21;91.82;74992.63;6165711;23;20019;-78
2023/12/30 06:02:23;;;;;;;0.20;0.20;;;;;;;11.42;91.25;75019.31;6191505;23;20005;-78
2023/12/30 06:04:50;;;;;;;0.20;0.20;;;;;;;11.21;91.02;74994.81;6192199;23;20370;-78
2023/12/30 06:07:17;;;;;;;0.20;0.20;;;;;;;11.11;91.06;74985.63;6191452;23;20100;-78
2023/12/30 06:09:42;;;;;;;0.20;0.20;;;;;;;11.11;91.07;74982.84;6166170;23;20015;-78
2023/12/30 06:12:09;;;;;;;0.20;0.20;;;;;;;11.12;91.50;74981.88;6191888;23;20088;-78
2023/12/30 06:14:36;;;;;;;0.20;0.20;;;;;;;11.18;91.95;74991.81;6191283;23;20017;-78
2023/12/30 06:17:02;;;;;;;0.20;0.20;;;;;;;11.26;91.81;75003.56;6191340;23;20001;-77
2023/12/30 06:19:29;;;;;;;0.20;0.20;;;;;;;11.20;92.23;74993.63;6190105;23;20069;-78
2023/12/30 06:21:56;;;;;;;0.20;0.20;;;;;;;11.15;92.61;74991.00;6191730;23;20001;-78
2023/12/30 06:24:26;;;;;;;0.20;0.20;;;;;;;11.24;92.64;75001.75;6193683;23;20005;-78
2023/12/30 06:26:51;;;;;;;0.20;0.20;;;;;;;11.22;93.18;74999.34;6195786;23;20008;-78
2023/12/30 06:29:18;;;;;;;0.20;0.20;;;;;;;11.13;92.61;74982.47;6193888;23;20009;-78
2023/12/30 06:31:44;;;;;;;0.20;0.20;;;;;;;11.23;93.23;74994.41;6195092;23;20001;-78
2023/12/30 06:34:12;;;;;;;0.20;0.20;;;;;;;11.07;93.87;74980.84;6194142;23;20053;-78
2023/12/30 06:36:41;;;;;;;0.20;0.20;;;;;;;11.26;93.38;75001.38;6194200;23;20004;-78
2023/12/30 06:39:08;;;;;;;0.20;0.20;;;;;;;11.38;93.37;75012.34;6167337;23;20406;-78
2023/12/30 06:41:34;;;;;;;0.20;0.20;;;;;;;11.07;93.38;74980.84;6193957;23;20039;-78
2023/12/30 06:43:59;;;;;;;0.20;0.20;;;;;;;11.16;93.22;74983.28;6193180;23;20009;-78
2023/12/30 06:46:25;;;;;;;0.20;0.20;;;;;;;11.47;92.96;75025.88;6166400;23;20005;-78
2023/12/30 06:48:52;;;;;;;0.20;0.20;;;;;;;11.19;92.63;74993.03;6192702;23;20009;-78
2023/12/30 06:51:17;;;;;;;0.20;0.20;;;;;;;11.13;92.19;74985.22;6193351;23;20068;-78
2023/12/30 06:53:43;;;;;;;0.20;0.20;;;;;;;11.06;93.31;74977.47;6193833;23;20024;-78
2023/12/30 06:56:10;;;;;;;0.20;0.20;;;;;;;11.16;94.37;74991.59;6194080;23;20008;-78
2023/12/30 06:58:36;;;;;;;0.20;0.20;;;;;;;11.29;94.36;75007.13;6193312;23;20028;-77
2023/12/30 07:01:04;;;;;;;0.20;0.20;;;;;;;11.32;94.87;75005.19;6193864;23;20001;-78
2023/12/30 07:03:36;;;;;;;0.20;0.20;;;;;;;11.23;94.92;74997.19;6191635;23;20051;-77
2023/12/30 07:06:01;;;;;;;0.20;0.20;;;;;;;11.09;95.10;74980.47;6194257;23;20080;-79
2023/12/30 07:08:27;;;;;;;0.20;0.20;;;;;;;11.04;94.82;74974.50;6195465;23;20012;-79
2023/12/30 07:10:53;;;;;;;0.20;0.20;;;;;;;11.15;95.55;74984.88;6144337;23;20104;-80
2023/12/30 07:13:22;;;;;;;0.20;0.20;;;;;;;11.37;94.70;75013.94;6195082;23;20008;-80
2023/12/30 07:15:50;;;;;;;0.20;0.20;;;;;;;11.18;94.85;74991.22;6171126;23;20026;-79
2023/12/30 07:18:16;;;;;;;0.20;0.20;;;;;;;11.19;94.05;74992.41;6166485;23;20009;-80
2023/12/30 07:20:41;;;;;;;0.20;0.20;;;;;;;11.07;94.29;74978.06;6165234;23;20082;-79
2023/12/30 07:23:07;;;;;;;0.20;0.20;;;;;;;11.38;94.46;75015.13;6137155;23;20025;-79
2023/12/30 07:25:33;;;;;;;0.20;0.20;;;;;;;11.48;93.79;75027.06;6162545;23;20019;-79
2023/12/30 07:27:58;;;;;;;0.30;0.30;;;;;;;11.41;94.11;75021.47;6161213;23;20049;-79
2023/12/30 07:30:24;;;;;;;0.20;0.20;;;;;;;11.32;94.82;75002.41;6133087;23;20015;-79
2023/12/30 07:32:49;;;;;;;0.20;0.20;;;;;;;11.07;94.94;74983.59;6109579;23;20010;-79
2023/12/30 07:35:20;;;;;;;0.30;0.30;;;;;;;11.29;94.75;75001.59;6131574;23;20013;-80
2023/12/30 07:37:46;;;;;;;0.28;0.28;;;;;;;11.43;95.25;75020.50;6161575;23;20009;-79
2023/12/30 07:40:12;;;;;;;0.20;0.20;;;;;;;11.15;94.83;74987.63;6163193;23;20080;-79
2023/12/30 07:42:37;;;;;;;0.20;0.20;;;;;;;11.33;95.68;75009.13;6165314;23;20005;-79
2023/12/30 07:45:04;;;;;;;0.20;0.20;;;;;;;11.43;94.69;75018.31;6166115;23;20040;-79
2023/12/30 07:47:29;;;;;;;0.30;0.30;;;;;;;11.33;95.28;75003.00;6165444;23;20529;-79
2023/12/30 07:49:56;;;;;;;0.30;0.30;;;;;;;11.30;94.62;75005.56;6140495;23;20008;-79
2023/12/30 07:52:21;;;;;;;0.20;0.20;;;;;;;11.51;94.60;75030.66;6175720;23;20010;-80
2023/12/30 07:54:47;;;;;;;0.30;0.30;;;;;;;11.33;94.44;75003.59;6182445;23;20012;-80
2023/12/30 07:57:13;;;;;;;0.30;0.30;;;;;;;11.23;95.21;74991.66;6183794;23;19989;-80
2023/12/30 07:59:40;;;;;;;0.20;0.20;;;;;;;11.37;94.15;75013.94;6183239;23;19982;-80
2023/12/30 08:02:05;;;;;;;0.20;0.20;;;;;;;11.37;93.85;75013.34;6156827;23;20021;-80
2023/12/30 08:04:32;;;;;;;0.20;0.20;;;;;;;11.42;93.86;75028.22;6183129;23;20009;-80
2023/12/30 08:06:59;;;;;;;0.20;0.20;;;;;;;11.73;94.15;75055.78;6183554;23;19998;-80
2023/12/30 08:09:33;;;;;;;0.20;0.20;;;;;;;11.47;92.17;75020.34;6181952;23;19990;-80
2023/12/30 08:11:59;;;;;;;0.30;0.30;;;;;;;11.45;93.51;75020.13;6183210;23;20008;-80
2023/12/30 08:14:24;;;;;;;0.20;0.20;;;;;;;11.80;93.32;75064.13;6162926;23;20285;-80
2023/12/30 08:16:50;;;;;;;0.22;0.22;;;;;;;11.43;93.74;75017.72;6213283;23;20005;-80
2023/12/30 08:19:18;;;;;;;0.20;0.20;;;;;;;11.53;93.63;75030.28;6185530;23;20020;-79
2023/12/30 08:21:44;;;;;;;0.20;0.20;;;;;;;11.60;93.36;75034.69;6197658;23;20036;-79
2023/12/30 08:24:11;;;;;;;0.20;0.20;;;;;;;11.50;92.95;75023.94;6191401;23;20009;-79
2023/12/30 08:26:41;;;;;;;0.20;0.20;;;;;;;11.65;93.30;75046.19;6191687;23;20012;-79
2023/12/30 08:29:08;;;;;;;0.20;0.20;;;;;;;11.81;92.99;75059.78;6192404;23;19997;-79
2023/12/30 08:31:44;;;;;;;0.28;0.28;;;;;;;11.77;93.94;75060.53;6191701;23;20007;-79
2023/12/30 08:34:10;;;;;;;0.20;0.20;;;;;;;11.60;94.00;75040.81;6192006;23;20005;-79
2023/12/30 08:36:35;;;;;;;0.20;0.20;;;;;;;11.64;94.38;75048.38;6193016;23;20059;-79
2023/12/30 08:39:01;;;;;;;0.20;0.20;;;;;;;11.65;94.26;75041.25;6191776;23;20001;-79
2023/12/30 08:41:27;;;;;;;0.20;0.20;;;;;;;11.71;94.36;75051.19;6191709;23;20448;-79
2023/12/30 08:43:53;;;;;;;0.22;0.22;;;;;;;11.60;93.64;75037.47;6165329;23;20091;-79
2023/12/30 08:46:19;;;;;;;0.30;0.30;;;;;;;11.77;93.40;75060.53;6191202;23;20005;-79
2023/12/30 08:48:44;;;;;;;0.30;0.30;;;;;;;11.91;92.68;75073.94;6191305;23;20345;-79
2023/12/30 08:51:13;;;;;;;0.30;0.30;;;;;;;12.32;92.14;75125.75;6191657;23;19993;-79
2023/12/30 08:53:39;;;;;;;0.20;0.20;;;;;;;12.11;90.42;75100.03;6188162;23;20617;-80
2023/12/30 08:56:04;;;;;;;0.25;0.25;;;;;;;12.44;89.67;75138.91;6188165;23;20028;-79
2023/12/30 08:58:30;;;;;;;0.20;0.20;;;;;;;12.30;89.15;75122.75;6189515;23;20076;-79
2023/12/30 09:00:55;;;;;;;0.20;0.20;;;;;;;12.43;88.89;75138.31;6188295;23;20005;-80
2023/12/30 09:03:24;;;;;;;0.20;0.20;;;;;;;12.68;87.67;75161.50;6160098;23;20020;-79
2023/12/30 09:05:52;;;;;;;0.20;0.20;;;;;;;12.46;87.03;75141.91;6186916;23;20032;-79
2023/12/30 09:08:18;;;;;;;0.20;0.20;;;;;;;12.75;86.55;75170.47;6186637;23;20001;-79
2023/12/30 09:10:44;;;;;;;0.20;0.20;;;;;;;12.77;85.86;75175.03;6185261;23;20028;-79
2023/12/30 09:13:10;;;;;;;0.20;0.20;;;;;;;12.92;83.36;75195.16;6186696;23;20009;-79
2023/12/30 09:15:36;;;;;;;0.20;0.20;;;;;;;13.02;82.22;75210.50;6186307;23;20020;-80
2023/12/30 09:18:02;;;;;;;0.20;0.20;;;;;;;13.21;81.19;75232.03;6184587;23;20004;-79
2023/12/30 09:20:28;;;;;;;0.20;0.20;;;;;;;13.24;80.28;75230.09;6185725;23;20060;-78
2023/12/30 09:22:53;;;;;;;0.20;0.20;;;;;;;13.36;79.23;75244.44;6160051;23;20011;-79
2023/12/30 09:25:20;;;;;;;0.20;0.20;;;;;;;13.93;78.17;75314.28;6158920;23;20024;-80
2023/12/30 09:27:46;;;;;;;0.20;0.20;;;;;;;13.96;76.02;75308.94;6185334;23;20035;-79
2023/12/30 09:30:13;;;;;;;0.20;0.20;;;;;;;14.02;74.71;75325.06;6185101;23;20029;-80
2023/12/30 09:32:38;;;;;;;0.20;0.20;;;;;;;14.18;75.19;75343.63;6181957;23;20144;-80
2023/12/30 09:35:06;;;;;;;0.20;0.20;;;;;;;14.27;73.26;75345.44;6183390;23;20441;-79
2023/12/30 09:37:31;;;;;;;0.20;0.20;;;;;;;14.21;72.50;75346.63;6183508;23;20005;-80
2023/12/30 09:39:57;;;;;;;0.20;0.20;;;;;;;14.06;74.04;75329.88;6183214;23;20005;-80
2023/12/30 09:42:23;;;;;;;0.20;0.20;;;;;;;14.25;73.51;75351.41;6181417;23;20013;-80
2023/12/30 09:44:53;;;;;;;0.30;0.30;;;;;;;13.98;74.96;75311.34;6182863;23;20001;-81
2023/12/30 09:47:19;;;;;;;0.20;0.20;;;;;;;14.13;75.68;75332.69;6182713;23;20016;-80
2023/12/30 09:49:45;;;;;;;0.20;0.20;;;;;;;14.24;74.97;75350.22;6183115;23;20104;-79
2023/12/30 09:52:10;;;;;;;0.20;0.20;;;;;;;14.39;73.10;75366.00;6156318;23;20087;-81
2023/12/30 09:54:38;;;;;;;0.20;0.20;;;;;;;14.39;72.78;75368.19;6182703;23;20004;-80
2023/12/30 09:57:04;;;;;;;0.20;0.20;;;;;;;14.54;73.65;75383.41;6183109;23;20005;-80
2023/12/30 09:59:30;;;;;;;0.20;0.20;;;;;;;14.66;72.70;75400.56;6183973;23;19996;-80
2023/12/30 10:01:56;;;;;;;0.20;0.20;;;;;;;14.42;71.64;75371.75;6184345;23;20001;-81
2023/12/30 10:04:22;;;;;;;0.20;0.20;;;;;;;14.27;72.20;75353.78;6157765;23;20100;-80
2023/12/30 10:06:53;;;;;;;0.20;0.20;;;;;;;14.44;70.87;75373.59;6184316;23;20394;-80
2023/12/30 10:09:20;;;;;;;0.20;0.20;;;;;;;14.03;70.42;75317.91;6157500;23;20505;-80
2023/12/30 10:11:47;;;;;;;0.30;0.30;;;;;;;14.30;70.63;75351.84;6183864;23;20430;-79
2023/12/30 10:14:12;;;;;;;0.20;0.20;;;;;;;14.21;71.84;75341.06;6156961;23;20009;-79
2023/12/30 10:16:37;;;;;;;0.20;0.20;;;;;;;14.46;72.76;75371.00;6183067;23;20009;-80
2023/12/30 10:19:11;;;;;;;0.20;0.20;;;;;;;14.18;72.14;75343.03;6182838;23;20005;-79
2023/12/30 10:21:40;;;;;;;0.20;0.20;;;;;;;14.33;72.69;75355.44;6184012;23;20005;-79
2023/12/30 10:24:08;;;;;;;0.20;0.20;;;;;;;13.93;74.11;75308.13;6185067;23;20411;-78
2023/12/30 11:07:53;;;;;;;0.20;0.20;;;;;;;14.45;72.69;75372.00;6157408;23;20088;-91
2023/12/30 11:10:22;;;;;;;0.20;0.20;;;;;;;14.51;72.11;75376.41;6156124;23;20017;-91
2023/12/30 11:29:10;;;;;;;0.20;0.20;;;;;;;14.68;72.33;75400.16;6190035;23;20024;-86
2023/12/30 11:34:59;;;;;;;0.20;0.20;;;;;;;14.77;72.31;75412.53;6186202;23;20063;-88
2023/12/30 11:37:27;;;;;;;0.20;0.20;;;;;;;15.05;72.82;75440.50;6157523;23;20009;-90
2023/12/30 11:39:56;;;;;;;0.20;0.20;;;;;;;14.99;73.67;75436.09;6183834;23;20369;-93
2023/12/30 11:42:21;;;;;;;0.20;0.20;;;;;;;14.72;72.79;75400.97;6184624;23;20101;-90
2023/12/30 11:44:46;;;;;;;0.20;0.20;;;;;;;14.88;72.90;75420.16;6159417;23;20008;-92
2023/12/30 11:47:21;;;;;;;0.20;0.20;;;;;;;14.76;72.67;75405.78;6161056;23;20005;-90
2023/12/30 11:49:46;;;;;;;0.20;0.20;;;;;;;14.67;74.12;75398.97;6184286;23;20035;-91
2023/12/30 11:52:13;;;;;;;0.20;0.20;;;;;;;14.82;73.95;75418.53;6159235;23;20035;-91
2023/12/30 11:54:39;;;;;;;0.20;0.20;;;;;;;14.82;73.78;75418.53;6184710;23;20422;-91
2023/12/30 12:03:36;;;;;;;0.20;0.20;;;;;;;14.29;76.57;75354.03;6183711;22;20036;-90
2023/12/30 12:11:33;;;;;;;0.20;0.20;;;;;;;14.12;77.66;75334.25;6184416;23;20032;-88
